Time;durP1;ratioP1;P1;durP2;ratioP2;P2;SDS_P1;SDS_P2;PMS_P1;PMS_P2;Temp;Humidity;BMP_temperature;BMP_pressure;BME280_temperature;BME280_humidity;BME280_pressure;Samples;Min_cycle;Max_cycle;Signal;HPM_P1;HPM_P2
2024/02/14 00:02:15;;;;;;;16.80;7.20;;;;;;;-9.80;62.78;100800.25;5134984;27;20034;-70
2024/02/14 00:04:41;;;;;;;16.48;7.60;;;;;;;-9.82;62.67;100800.19;5133239;27;20041;-67
2024/02/14 00:07:06;;;;;;;15.38;7.60;;;;;;;-9.91;63.08;100789.66;5134100;27;20038;-69
2024/02/14 00:09:32;;;;;;;17.05;7.90;;;;;;;-10.26;63.04;100740.63;5103608;27;20088;-69
2024/02/14 00:11:57;;;;;;;16.92;8.02;;;;;;;-10.16;62.93;100759.81;5133357;27;20083;-69
2024/02/14 00:14:24;;;;;;;12.52;5.93;;;;;;;-10.03;62.35;100748.88;5134310;27;20023;-68
2024/02/14 00:16:50;;;;;;;18.63;7.88;;;;;;;-9.74;62.46;100802.94;5125658;27;20126;-67
2024/02/14 00:19:15;;;;;;;18.58;8.00;;;;;;;-9.76;62.01;100804.63;5110675;27;20027;-70
2024/02/14 00:21:41;;;;;;;16.33;7.45;;;;;;;-10.17;62.14;100752.91;5133278;27;20030;-69
2024/02/14 00:24:07;;;;;;;12.98;6.10;;;;;;;-9.86;62.71;100813.09;5127522;27;20038;-71
2024/02/14 00:26:34;;;;;;;15.35;6.40;;;;;;;-10.30;62.29;100734.56;5098436;27;20040;-71
2024/02/14 00:29:00;;;;;;;12.38;4.35;;;;;;;-9.90;62.66;100796.59;5060866;27;20025;-66
2024/02/14 00:31:25;;;;;;;20.77;8.05;;;;;;;-10.09;62.53;100813.50;5049795;28;20039;-70
2024/02/14 00:34:11;;;;;;;13.30;6.03;;;;;;;-9.99;62.44;100796.44;5055464;27;20073;-65
2024/02/14 00:36:36;;;;;;;15.52;6.82;;;;;;;-10.44;62.84;100748.97;5049593;28;20029;-69
2024/02/14 00:39:02;;;;;;;6.85;3.47;;;;;;;-9.90;62.56;100811.25;5048605;28;20025;-69
2024/02/14 00:41:29;;;;;;;12.45;5.82;;;;;;;-9.99;62.55;100812.84;5050047;28;20203;-69
2024/02/14 00:43:58;;;;;;;11.45;5.28;;;;;;;-10.01;62.75;100809.34;5049314;28;20035;-71
2024/02/14 00:46:24;;;;;;;13.32;6.18;;;;;;;-9.98;62.48;100819.75;5048031;28;20029;-70
2024/02/14 00:48:50;;;;;;;12.48;5.60;;;;;;;-10.08;62.44;100812.66;5047776;28;20285;-71
2024/02/14 00:51:15;;;;;;;15.82;7.25;;;;;;;-10.32;62.67;100790.63;5049908;28;20132;-69
2024/02/14 00:53:41;;;;;;;16.40;7.30;;;;;;;-10.25;62.95;100820.06;5048764;28;20362;-68
2024/02/14 00:56:07;;;;;;;15.70;6.43;;;;;;;-10.25;63.08;100822.66;5048732;28;20025;-69
2024/02/14 00:58:33;;;;;;;14.70;7.22;;;;;;;-10.35;63.10;100812.97;5049391;28;20416;-70
2024/02/14 01:00:58;;;;;;;16.92;7.55;;;;;;;-10.61;63.27;100787.44;5054164;28;20093;-70
2024/02/14 01:03:24;;;;;;;17.25;7.63;;;;;;;-10.25;62.75;100817.47;5068093;28;20045;-68
2024/02/14 01:05:49;;;;;;;15.15;7.13;;;;;;;-10.22;63.14;100827.94;5069984;28;20040;-70
2024/02/14 01:08:15;;;;;;;15.07;6.88;;;;;;;-10.31;63.18;100819.94;5069126;28;20024;-69
2024/02/14 01:10:41;;;;;;;20.20;6.68;;;;;;;-10.32;62.81;100819.09;5068802;28;20094;-69
2024/02/14 01:13:06;;;;;;;12.60;5.28;;;;;;;-10.20;62.47;100821.06;5069048;28;20085;-69
2024/02/14 01:15:35;;;;;;;15.02;7.15;;;;;;;-10.58;62.68;100775.44;5069775;28;20017;-66
2024/02/14 01:18:01;;;;;;;10.20;3.92;;;;;;;-10.54;62.50;100777.25;5056738;28;20104;-71
2024/02/14 01:20:26;;;;;;;13.40;5.82;;;;;;;-10.67;62.83;100768.34;5052678;28;20076;-70
2024/02/14 01:22:52;;;;;;;13.90;5.93;;;;;;;-10.27;62.60;100843.38;5052125;28;20109;-69
2024/02/14 01:25:29;;;;;;;14.48;6.32;;;;;;;-10.37;62.56;100825.88;5051600;28;20033;-70
2024/02/14 01:27:56;;;;;;;14.40;6.57;;;;;;;-10.63;62.80;100787.41;5049893;28;20029;-70
2024/02/14 01:30:21;;;;;;;16.17;7.38;;;;;;;-10.52;63.17;100831.63;5046607;27;20056;-70
2024/02/14 01:32:47;;;;;;;11.85;5.35;;;;;;;-10.43;62.27;100805.97;5048518;28;20483;-70
2024/02/14 01:35:13;;;;;;;16.83;6.95;;;;;;;-10.26;62.13;100847.69;5049516;28;20057;-70
2024/02/14 01:37:39;;;;;;;12.32;6.05;;;;;;;-10.38;62.13;100847.44;5048459;28;20047;-70
2024/02/14 01:40:07;;;;;;;12.90;6.53;;;;;;;-10.36;61.75;100847.47;5052106;28;20143;-67
2024/02/14 01:42:47;;;;;;;13.20;5.68;;;;;;;-10.49;62.26;100856.72;5050768;28;20035;-68
2024/02/14 01:45:13;;;;;;;17.67;4.85;;;;;;;-10.39;62.19;100854.34;5048782;28;20115;-69
2024/02/14 01:47:50;;;;;;;15.93;6.68;;;;;;;-10.49;62.16;100860.16;5049064;28;20453;-66
2024/02/14 01:50:18;;;;;;;11.07;5.25;;;;;;;-10.68;62.68;100844.25;5048916;28;20088;-70
2024/02/14 01:52:45;;;;;;;12.95;6.30;;;;;;;-10.65;62.25;100853.78;5048640;28;20040;-68
2024/02/14 01:55:12;;;;;;;17.88;6.35;;;;;;;-10.69;62.27;100857.13;5047738;28;20032;-69
2024/02/14 01:57:39;;;;;;;16.25;4.45;;;;;;;-10.47;62.27;100860.22;5047563;28;20029;-69
2024/02/14 02:00:09;;;;;;;14.35;5.72;;;;;;;-10.69;62.84;100870.97;5047649;28;20029;-65
2024/02/14 02:02:39;;;;;;;14.77;4.93;;;;;;;-10.75;62.76;100854.41;5047585;28;20093;-64
2024/02/14 02:05:06;;;;;;;15.07;6.80;;;;;;;-10.80;62.92;100856.88;5048670;28;20029;-64
2024/02/14 02:07:33;;;;;;;13.15;6.15;;;;;;;-10.66;62.26;100875.31;5048258;28;20044;-70
2024/02/14 02:09:58;;;;;;;12.05;4.82;;;;;;;-10.58;62.43;100873.81;5048261;28;20033;-69
2024/02/14 02:12:27;;;;;;;10.80;4.63;;;;;;;-10.67;62.23;100860.63;5048419;28;20044;-70
2024/02/14 02:15:15;;;;;;;8.27;4.47;;;;;;;-10.64;61.95;100877.97;5062268;28;20073;-68
2024/02/14 02:18:04;;;;;;;9.98;4.07;;;;;;;-10.57;62.07;100880.72;5067023;28;20109;-68
2024/02/14 02:20:50;;;;;;;10.32;5.13;;;;;;;-10.68;62.12;100862.38;5067493;28;20040;-68
2024/02/14 02:23:15;;;;;;;12.48;5.22;;;;;;;-10.70;62.19;100871.81;5068285;28;20033;-69
2024/02/14 02:25:44;;;;;;;16.27;6.75;;;;;;;-10.84;62.44;100881.84;5070791;28;20029;-68
2024/02/14 02:28:29;;;;;;;17.58;7.25;;;;;;;-10.99;63.47;100878.88;5069473;28;20025;-68
2024/02/14 02:30:55;;;;;;;16.15;7.22;;;;;;;-11.00;64.04;100879.72;5068352;27;20040;-69
2024/02/14 02:33:22;;;;;;;11.15;4.57;;;;;;;-10.66;62.60;100877.91;5067744;28;20036;-68
2024/02/14 02:35:49;;;;;;;16.23;6.90;;;;;;;-10.82;62.86;100872.41;5066326;28;20060;-69
2024/02/14 02:38:36;;;;;;;8.98;4.28;;;;;;;-10.73;62.83;100878.63;5054415;28;20029;-68
2024/02/14 02:41:22;;;;;;;14.88;6.60;;;;;;;-10.96;62.78;100866.91;5050854;28;20040;-69
2024/02/14 02:44:07;;;;;;;13.65;5.70;;;;;;;-10.68;62.11;100890.84;5051524;28;20067;-64
2024/02/14 02:47:01;;;;;;;8.55;3.72;;;;;;;-10.54;62.04;100896.31;5051814;28;20033;-69
2024/02/14 02:49:47;;;;;;;13.75;6.05;;;;;;;-10.75;61.74;100880.28;5049576;28;20033;-69
2024/02/14 02:52:32;;;;;;;18.42;6.15;;;;;;;-10.83;62.16;100887.88;5050807;28;20361;-68
2024/02/14 02:55:18;;;;;;;18.13;6.85;;;;;;;-10.80;62.09;100887.06;5051755;28;20052;-68
2024/02/14 02:57:51;;;;;;;13.00;6.53;;;;;;;-10.87;62.27;100897.25;5051210;28;20029;-71
2024/02/14 03:00:21;;;;;;;18.63;6.70;;;;;;;-10.88;62.28;100892.91;5049889;28;20154;-68
2024/02/14 03:03:10;;;;;;;14.18;6.55;;;;;;;-10.96;62.43;100913.47;5052299;28;20032;-68
2024/02/14 03:05:56;;;;;;;17.38;7.85;;;;;;;-11.04;62.57;100903.75;5051582;28;20063;-70
2024/02/14 03:08:43;;;;;;;16.38;5.05;;;;;;;-10.90;62.43;100901.50;5050395;28;20025;-70
2024/02/14 03:11:28;;;;;;;13.35;5.10;;;;;;;-10.84;62.40;100918.06;5049852;28;20037;-69
2024/02/14 03:14:14;;;;;;;13.70;6.53;;;;;;;-11.04;61.84;100883.06;5050795;28;20028;-69
2024/02/14 03:17:00;;;;;;;11.13;4.53;;;;;;;-11.00;62.02;100901.25;5035200;28;20072;-70
2024/02/14 03:19:27;;;;;;;11.18;4.45;;;;;;;-10.90;62.29;100904.09;5050903;28;20071;-69
2024/02/14 03:21:53;;;;;;;9.77;3.95;;;;;;;-10.91;62.12;100910.97;5050638;28;20183;-70
2024/02/14 03:24:19;;;;;;;8.57;3.90;;;;;;;-11.25;62.29;100864.44;5050470;28;20033;-69
2024/02/14 03:26:45;;;;;;;10.13;5.03;;;;;;;-11.18;62.73;100895.66;5050482;28;20029;-69
2024/02/14 03:29:12;;;;;;;11.43;5.20;;;;;;;-11.06;62.47;100910.59;5050788;28;20029;-67
2024/02/14 03:31:38;;;;;;;11.93;5.32;;;;;;;-10.97;62.58;100910.81;5050869;28;20151;-68
2024/02/14 03:34:03;;;;;;;12.57;5.75;;;;;;;-11.12;63.06;100914.75;5050162;27;20039;-70
2024/02/14 03:36:30;;;;;;;16.73;6.72;;;;;;;-11.24;63.11;100917.03;5049343;28;20037;-69
2024/02/14 03:38:57;;;;;;;17.75;7.32;;;;;;;-11.37;63.09;100905.50;5050429;28;20036;-68
2024/02/14 03:41:23;;;;;;;7.68;3.25;;;;;;;-11.12;63.52;100903.56;5051058;28;20025;-68
2024/02/14 03:43:49;;;;;;;16.25;6.25;;;;;;;-10.93;62.19;100925.56;5051085;28;20133;-68
2024/02/14 03:46:15;;;;;;;10.45;4.20;;;;;;;-10.93;61.77;100922.13;5049685;28;20035;-68
2024/02/14 03:48:43;;;;;;;11.00;6.18;;;;;;;-11.02;61.94;100922.75;5049469;28;20033;-66
2024/02/14 03:51:09;;;;;;;14.90;5.35;;;;;;;-11.19;62.03;100943.88;5049927;28;20049;-69
2024/02/14 03:53:35;;;;;;;15.82;6.18;;;;;;;-11.35;62.52;100929.69;5050299;28;20048;-69
2024/02/14 03:56:00;;;;;;;13.40;6.03;;;;;;;-11.32;62.51;100934.06;5050271;28;20264;-68
2024/02/14 03:58:26;;;;;;;14.13;5.32;;;;;;;-11.15;62.35;100921.56;5032757;28;20029;-68
2024/02/14 04:00:52;;;;;;;12.80;6.13;;;;;;;-11.40;62.56;100921.78;5050864;28;20349;-69
2024/02/14 04:03:18;;;;;;;9.70;4.55;;;;;;;-11.30;62.64;100940.16;5050130;28;20457;-69
2024/02/14 04:05:47;;;;;;;10.88;4.80;;;;;;;-11.16;61.80;100946.53;5050124;28;20040;-70
2024/02/14 04:08:13;;;;;;;15.43;6.43;;;;;;;-11.31;62.40;100946.16;5050239;28;20036;-68
2024/02/14 04:10:39;;;;;;;14.32;5.47;;;;;;;-11.29;62.51;100940.19;5050157;28;20024;-68
2024/02/14 04:13:05;;;;;;;15.13;6.43;;;;;;;-11.44;62.66;100935.47;5048830;28;20041;-68
2024/02/14 04:15:32;;;;;;;13.68;6.30;;;;;;;-11.28;61.98;100941.06;5032938;28;20136;-69
2024/02/14 04:18:10;;;;;;;13.77;5.60;;;;;;;-11.48;62.83;100951.75;5050417;28;20037;-66
2024/02/14 04:20:36;;;;;;;17.00;6.88;;;;;;;-11.67;63.21;100937.44;5049572;28;20527;-70
2024/02/14 04:23:02;;;;;;;14.02;6.60;;;;;;;-11.51;63.18;100941.31;5049973;28;20048;-71
2024/02/14 04:25:27;;;;;;;16.02;5.88;;;;;;;-11.49;63.17;100931.91;5049859;28;20029;-70
2024/02/14 04:27:53;;;;;;;7.88;3.22;;;;;;;-11.34;62.72;100957.28;5050062;28;20040;-71
2024/02/14 04:30:18;;;;;;;6.97;2.80;;;;;;;-11.31;62.21;100935.81;5049416;28;20033;-69
2024/02/14 04:33:04;;;;;;;12.75;6.43;;;;;;;-11.41;62.69;100938.13;5049053;28;20124;-70
2024/02/14 04:35:30;;;;;;;14.40;5.47;;;;;;;-11.50;62.60;100932.72;5048868;27;20033;-68
2024/02/14 04:37:56;;;;;;;15.75;6.30;;;;;;;-11.40;62.00;100952.81;5048592;28;20029;-67
2024/02/14 04:40:22;;;;;;;17.90;6.25;;;;;;;-11.37;62.06;100951.13;5049695;28;20089;-67
2024/02/14 04:42:48;;;;;;;8.00;3.63;;;;;;;-11.19;61.99;100950.78;5049069;28;20033;-68
2024/02/14 04:45:13;;;;;;;14.77;6.35;;;;;;;-11.27;61.39;100973.84;5049269;28;20029;-68
2024/02/14 04:47:59;;;;;;;12.45;5.43;;;;;;;-11.28;61.77;100966.91;5034053;28;20025;-69
2024/02/14 04:50:25;;;;;;;17.27;6.13;;;;;;;-11.43;61.73;100965.66;5049538;28;20132;-68
2024/02/14 04:52:50;;;;;;;12.30;5.35;;;;;;;-11.33;61.68;100978.81;5043058;28;20052;-70
2024/02/14 04:55:16;;;;;;;13.52;6.00;;;;;;;-11.44;61.92;100965.63;5029408;28;20026;-71
2024/02/14 04:57:41;;;;;;;12.75;4.88;;;;;;;-11.43;61.76;100978.56;5049407;28;20043;-71
2024/02/14 05:00:09;;;;;;;10.35;5.07;;;;;;;-11.49;61.83;100982.69;5049534;28;20029;-71
2024/02/14 05:02:36;;;;;;;16.42;7.63;;;;;;;-11.64;62.50;100990.88;5048035;28;20028;-67
2024/02/14 05:05:03;;;;;;;9.65;4.57;;;;;;;-11.40;62.61;100998.47;5048045;28;20379;-70
2024/02/14 05:07:32;;;;;;;8.63;3.78;;;;;;;-11.23;61.85;100991.19;5048446;28;20082;-70
2024/02/14 05:09:58;;;;;;;14.23;6.85;;;;;;;-11.29;61.45;100985.84;5049293;28;20033;-69
2024/02/14 05:12:24;;;;;;;19.75;4.78;;;;;;;-11.25;61.40;100985.09;5049116;28;20037;-69
2024/02/14 05:14:49;;;;;;;14.40;5.90;;;;;;;-11.20;61.01;100996.44;5047842;28;20036;-70
2024/02/14 05:17:15;;;;;;;14.80;6.10;;;;;;;-11.16;60.86;100987.91;5049104;28;20068;-70
2024/02/14 05:19:44;;;;;;;10.60;4.65;;;;;;;-12.00;61.07;100882.28;5049459;28;20055;-68
2024/02/14 05:22:09;;;;;;;19.20;5.00;;;;;;;-10.96;60.37;100997.94;5031277;28;20033;-70
2024/02/14 05:24:37;;;;;;;21.13;7.70;;;;;;;-11.18;61.14;100994.75;5048923;28;20158;-70
2024/02/14 05:27:04;;;;;;;20.55;7.57;;;;;;;-11.06;61.35;100999.41;5049625;28;20479;-80
2024/02/14 05:29:30;;;;;;;15.45;6.35;;;;;;;-10.97;60.95;100991.91;5049543;28;20028;-69
2024/02/14 05:31:55;;;;;;;12.07;4.82;;;;;;;-10.90;60.09;100985.16;5047161;28;20032;-64
2024/02/14 05:34:21;;;;;;;14.65;6.43;;;;;;;-10.69;59.84;101009.81;5097180;28;20034;-68
2024/02/14 05:36:47;;;;;;;17.70;7.22;;;;;;;-10.66;60.08;101004.72;5047388;27;20041;-65
2024/02/14 05:39:14;;;;;;;17.15;8.15;;;;;;;-10.50;59.43;101002.53;5046620;28;20028;-65
2024/02/14 05:41:40;;;;;;;17.58;7.10;;;;;;;-10.16;59.16;101022.31;5047529;28;20036;-66
2024/02/14 05:44:05;;;;;;;17.13;7.05;;;;;;;-9.95;57.61;101008.97;5048382;28;20082;-62
2024/02/14 05:46:31;;;;;;;17.25;7.82;;;;;;;-9.85;57.37;101012.63;5053613;28;20029;-66
2024/02/14 05:48:57;;;;;;;16.50;7.55;;;;;;;-9.64;56.88;101019.13;5048873;28;20036;-65
2024/02/14 05:51:23;;;;;;;16.73;7.90;;;;;;;-9.45;56.13;101015.19;5048142;27;20045;-66
2024/02/14 05:53:49;;;;;;;15.80;7.15;;;;;;;-9.09;55.76;101001.22;5059686;27;20046;-63
2024/02/14 05:56:14;;;;;;;11.88;4.75;;;;;;;-8.61;54.80;101009.00;5068279;27;20025;-66
2024/02/14 05:58:40;;;;;;;9.27;4.07;;;;;;;-8.26;54.06;101013.84;5056245;27;20029;-66
2024/02/14 06:01:06;;;;;;;11.38;5.50;;;;;;;-7.99;52.72;101022.91;5051944;28;20322;-68
2024/02/14 06:03:32;;;;;;;8.43;4.40;;;;;;;-7.75;51.64;101015.47;5051684;28;20093;-66
2024/02/14 06:05:57;;;;;;;13.45;6.38;;;;;;;-7.84;51.61;100987.63;5050631;28;20033;-65
2024/02/14 06:08:26;;;;;;;17.23;7.35;;;;;;;-7.61;50.89;101013.91;5056984;27;20070;-64
2024/02/14 06:10:53;;;;;;;16.27;7.18;;;;;;;-7.29;51.00;101018.66;5062558;27;20494;-66
2024/02/14 06:13:19;;;;;;;15.27;7.05;;;;;;;-6.64;49.77;101027.16;5057349;27;20063;-66
2024/02/14 06:15:45;;;;;;;10.50;5.20;;;;;;;-5.87;48.89;101030.34;5052230;28;20033;-66
2024/02/14 06:18:11;;;;;;;14.15;6.45;;;;;;;-5.85;47.18;100976.44;5033952;28;20033;-65
2024/02/14 06:20:37;;;;;;;15.57;6.80;;;;;;;-5.28;45.90;101020.22;5056382;27;20037;-66
2024/02/14 06:23:03;;;;;;;7.63;4.05;;;;;;;-4.48;45.18;101025.66;5051925;28;20025;-65
2024/02/14 06:25:29;;;;;;;14.80;6.30;;;;;;;-4.35;43.06;100987.31;5051473;28;20132;-65
2024/02/14 06:28:10;;;;;;;11.30;5.68;;;;;;;-3.46;42.39;101019.41;5051459;28;20371;-64
2024/02/14 06:30:36;;;;;;;15.35;5.53;;;;;;;-2.94;41.09;101014.81;5117868;27;20144;-66
2024/02/14 06:33:02;;;;;;;12.68;6.22;;;;;;;-2.63;40.19;101014.63;5135779;27;20080;-64
2024/02/14 06:35:28;;;;;;;14.25;6.70;;;;;;;-2.84;39.61;100976.31;5071608;27;20061;-65
2024/02/14 06:37:54;;;;;;;13.27;7.28;;;;;;;-3.07;39.82;101011.41;5056961;27;20068;-66
2024/02/14 06:40:20;;;;;;;12.02;6.82;;;;;;;-2.79;39.85;101033.94;5056697;27;20044;-66
2024/02/14 06:42:45;;;;;;;13.73;6.78;;;;;;;-2.43;38.91;101023.22;5050133;28;20051;-64
2024/02/14 06:45:11;;;;;;;14.60;6.57;;;;;;;-1.81;37.87;101049.84;5051076;28;20037;-65
2024/02/14 06:47:41;;;;;;;13.63;7.38;;;;;;;-1.77;37.61;101016.53;5050015;28;20037;-67
2024/02/14 06:50:08;;;;;;;11.75;6.03;;;;;;;-0.92;36.38;101023.41;5049211;28;20044;-64
2024/02/14 06:52:34;;;;;;;20.45;7.53;;;;;;;-0.17;35.61;101010.00;5051171;28;20053;-65
2024/02/14 06:55:00;;;;;;;15.05;6.70;;;;;;;0.38;34.73;101001.97;5051658;28;20471;-66
2024/02/14 06:57:26;;;;;;;12.50;7.40;;;;;;;1.00;33.71;101015.66;5051028;28;20199;-66
2024/02/14 06:59:51;;;;;;;13.18;7.20;;;;;;;1.83;32.66;101019.94;5049752;28;20029;-63
2024/02/14 07:02:17;;;;;;;10.73;5.07;;;;;;;3.23;31.32;101014.28;5051605;28;20075;-65
2024/02/14 07:04:42;;;;;;;13.65;7.88;;;;;;;2.90;30.25;101016.19;5050760;28;20124;-66
2024/02/14 07:07:08;;;;;;;13.60;7.65;;;;;;;3.35;30.50;100975.09;5050141;28;20068;-66
2024/02/14 07:09:35;;;;;;;16.95;7.38;;;;;;;4.15;28.26;101024.56;5050143;28;20049;-64
2024/02/14 07:12:02;;;;;;;14.43;7.80;;;;;;;3.53;28.82;101016.03;5050971;28;20033;-65
2024/02/14 07:14:28;;;;;;;13.50;7.93;;;;;;;2.76;29.91;101021.88;5051099;28;20453;-66
2024/02/14 07:16:53;;;;;;;10.57;6.60;;;;;;;3.36;30.84;100998.00;5050074;28;20147;-64
2024/02/14 07:19:19;;;;;;;17.77;8.13;;;;;;;4.75;28.54;101010.97;5050495;28;20040;-64
2024/02/14 07:21:45;;;;;;;14.20;7.90;;;;;;;5.48;27.65;101009.97;5050978;28;20032;-66
2024/02/14 07:24:10;;;;;;;13.48;7.50;;;;;;;6.34;26.04;101028.56;5051135;28;20067;-65
2024/02/14 07:26:36;;;;;;;13.20;8.07;;;;;;;5.88;25.70;101022.47;5050593;28;20028;-63
2024/02/14 07:29:03;;;;;;;14.73;7.68;;;;;;;4.68;27.41;101007.69;5049929;28;20049;-63
2024/02/14 07:31:30;;;;;;;15.32;7.20;;;;;;;4.82;27.46;101011.59;5050818;28;20033;-67
2024/02/14 07:33:56;;;;;;;15.05;7.78;;;;;;;5.12;27.61;101016.66;5049791;28;20127;-70
2024/02/14 07:36:22;;;;;;;15.32;7.07;;;;;;;5.16;27.29;101015.63;5049828;28;20180;-71
2024/02/14 07:38:48;;;;;;;11.85;7.00;;;;;;;4.59;28.42;101013.34;5048862;27;20037;-71
2024/02/14 07:41:13;;;;;;;12.68;7.47;;;;;;;3.91;28.96;101023.63;5049940;28;20089;-71
2024/02/14 07:43:48;;;;;;;10.05;7.03;;;;;;;3.79;29.60;101020.47;5051467;28;20060;-71
2024/02/14 07:46:20;;;;;;;11.48;6.30;;;;;;;3.86;28.57;101022.03;5050436;28;20063;-69
2024/02/14 07:48:48;;;;;;;12.68;7.20;;;;;;;2.99;28.53;101040.59;5048814;28;20520;-69
2024/02/14 07:51:14;;;;;;;15.20;6.60;;;;;;;2.25;28.72;101030.28;5050560;28;20063;-69
2024/02/14 07:53:39;;;;;;;13.07;5.82;;;;;;;1.47;29.31;101033.09;5048886;28;20447;-69
2024/02/14 07:56:05;;;;;;;10.25;5.82;;;;;;;0.47;31.09;101034.31;5050402;28;20041;-69
2024/02/14 07:58:31;;;;;;;12.00;6.03;;;;;;;-0.68;32.21;101038.88;5049995;28;20053;-69
2024/02/14 08:00:57;;;;;;;11.27;6.40;;;;;;;-1.64;33.79;101033.03;5049904;28;20124;-70
2024/02/14 08:03:22;;;;;;;9.38;5.85;;;;;;;-2.28;34.73;101033.59;5046077;28;20025;-70
2024/02/14 08:05:48;;;;;;;12.60;6.43;;;;;;;-3.21;36.98;101063.84;5049663;28;20033;-71
2024/02/14 08:08:14;;;;;;;12.65;6.35;;;;;;;-3.73;37.78;101038.69;5048230;28;20347;-70
2024/02/14 08:10:39;;;;;;;14.93;6.53;;;;;;;-4.06;39.09;101053.56;5042898;28;20037;-68
2024/02/14 08:13:05;;;;;;;11.82;4.60;;;;;;;-4.06;38.66;101064.88;5042360;27;20116;-70
2024/02/14 08:15:31;;;;;;;13.75;6.38;;;;;;;-4.69;39.69;101060.47;5031375;27;20368;-69
2024/02/14 08:17:56;;;;;;;8.13;3.92;;;;;;;-4.88;40.70;101059.53;5041777;27;20116;-69
2024/02/14 08:20:23;;;;;;;12.45;4.85;;;;;;;-5.46;41.34;101066.25;5042230;27;20465;-69
2024/02/14 08:23:04;;;;;;;10.40;5.13;;;;;;;-5.52;41.78;101072.31;5048497;28;20356;-65
2024/02/14 08:25:30;;;;;;;12.75;6.80;;;;;;;-5.88;42.80;101070.34;5046330;28;20033;-66
2024/02/14 08:27:56;;;;;;;13.48;5.70;;;;;;;-6.02;42.63;101059.84;5048931;28;20033;-60
2024/02/14 08:30:22;;;;;;;11.60;6.18;;;;;;;-6.04;43.53;101054.59;5049423;28;20071;-68
2024/02/14 08:32:47;;;;;;;15.13;5.60;;;;;;;-5.61;42.59;101087.94;5047815;28;20120;-65
2024/02/14 08:35:13;;;;;;;14.35;6.75;;;;;;;-5.87;42.46;101049.50;5045565;28;20035;-66
2024/02/14 08:37:40;;;;;;;15.05;5.75;;;;;;;-5.86;42.96;101074.72;5047398;27;20025;-67
2024/02/14 08:40:07;;;;;;;12.43;4.90;;;;;;;-6.14;43.63;101018.91;5049165;27;20043;-64
2024/02/14 08:42:36;;;;;;;17.65;7.00;;;;;;;-6.37;43.96;101010.06;5049141;27;20107;-66
2024/02/14 08:45:01;;;;;;;13.70;7.13;;;;;;;-6.29;44.66;101036.16;5118088;27;20443;-66
2024/02/14 08:47:29;;;;;;;13.95;5.45;;;;;;;-5.86;43.74;101063.38;5108102;27;20044;-65
2024/02/14 08:49:55;;;;;;;13.38;6.80;;;;;;;-6.01;44.81;101080.72;5048609;28;20305;-63
2024/02/14 08:52:21;;;;;;;12.25;7.10;;;;;;;-5.78;44.64;101074.78;5038984;28;20049;-65
2024/02/14 08:54:46;;;;;;;15.65;7.43;;;;;;;-5.71;44.35;101050.47;5043171;27;20037;-62
2024/02/14 08:57:12;;;;;;;13.30;5.90;;;;;;;-5.44;43.96;101063.63;5047950;28;20052;-63
2024/02/14 08:59:38;;;;;;;12.80;5.93;;;;;;;-5.21;43.51;101076.81;5045938;28;20524;-65
2024/02/14 09:02:03;;;;;;;15.98;6.90;;;;;;;-5.39;43.15;101078.47;5044878;27;20043;-67
2024/02/14 09:04:29;;;;;;;16.08;6.88;;;;;;;-5.85;43.89;101026.00;5046263;28;20420;-66
2024/02/14 09:06:54;;;;;;;19.50;7.72;;;;;;;-5.53;44.36;101072.31;5030282;28;20326;-65
2024/02/14 09:09:20;;;;;;;14.32;6.70;;;;;;;-5.35;43.60;101061.09;5036326;28;20468;-64
2024/02/14 09:11:46;;;;;;;14.80;7.68;;;;;;;-5.51;44.62;101074.06;5027989;28;20036;-65
2024/02/14 09:14:12;;;;;;;13.32;7.03;;;;;;;-5.59;45.05;101065.31;5037739;28;20036;-63
2024/02/14 09:16:38;;;;;;;10.35;5.00;;;;;;;-5.23;44.18;101081.16;5048052;28;20033;-63
2024/02/14 09:19:07;;;;;;;13.02;7.05;;;;;;;-5.69;44.84;101024.38;5046113;28;20085;-64
2024/02/14 09:21:37;;;;;;;16.02;7.68;;;;;;;-5.56;44.49;101081.00;5046509;28;20043;-63
2024/02/14 09:24:03;;;;;;;16.42;7.38;;;;;;;-5.69;44.33;101085.25;5046682;28;20569;-71
2024/02/14 09:26:29;;;;;;;12.95;7.00;;;;;;;-5.82;45.35;101093.84;5047576;28;20071;-61
2024/02/14 09:28:55;;;;;;;15.40;7.70;;;;;;;-6.06;45.75;101078.06;5047665;28;20037;-64
2024/02/14 09:31:22;;;;;;;12.35;6.10;;;;;;;-5.67;45.55;101099.19;5050850;28;20033;-65
2024/02/14 09:33:48;;;;;;;12.63;6.15;;;;;;;-5.78;44.26;101051.28;5036481;28;20039;-64
2024/02/14 09:36:15;;;;;;;17.27;7.95;;;;;;;-5.72;45.84;101063.47;5048383;28;20363;-64
2024/02/14 09:38:41;;;;;;;14.50;6.35;;;;;;;-5.39;45.31;101068.03;5050719;28;20025;-67
2024/02/14 09:41:23;;;;;;;13.10;6.60;;;;;;;-5.06;45.47;101086.47;5052012;27;20033;-66
2024/02/14 09:43:48;;;;;;;15.55;7.13;;;;;;;-5.20;44.53;101092.47;5050625;28;20040;-67
2024/02/14 09:46:15;;;;;;;12.70;4.90;;;;;;;-4.97;44.19;101083.03;5050133;28;20033;-64
2024/02/14 09:48:44;;;;;;;9.43;5.13;;;;;;;-5.05;43.87;101104.75;5040725;28;20033;-63
2024/02/14 09:51:11;;;;;;;12.35;5.63;;;;;;;-5.50;44.55;101065.34;5031364;28;20080;-66
2024/02/14 09:53:41;;;;;;;13.63;6.22;;;;;;;-5.72;45.21;101085.25;5031064;28;20042;-67
2024/02/14 09:56:10;;;;;;;14.82;6.35;;;;;;;-5.62;45.51;101097.47;5030354;28;20068;-68
2024/02/14 09:58:36;;;;;;;12.98;5.88;;;;;;;-5.49;45.18;101093.19;5057855;27;20029;-67
2024/02/14 10:01:02;;;;;;;13.82;5.88;;;;;;;-5.47;44.73;101093.22;5051638;28;20410;-69
2024/02/14 10:03:28;;;;;;;17.35;6.90;;;;;;;-5.60;45.45;101094.88;5081149;27;20036;-68
2024/02/14 10:05:54;;;;;;;13.05;7.40;;;;;;;-5.84;45.91;101079.91;5051634;28;20097;-69
2024/02/14 10:08:22;;;;;;;18.70;7.38;;;;;;;-5.63;45.77;101077.47;5051209;28;20025;-72
2024/02/14 10:10:49;;;;;;;15.27;8.02;;;;;;;-5.49;45.88;101106.25;5121985;27;20027;-65
2024/02/14 10:13:16;;;;;;;13.18;6.95;;;;;;;-5.51;45.78;101107.13;5136050;27;20482;-71
2024/02/14 10:15:42;;;;;;;13.80;6.20;;;;;;;-5.50;45.65;101096.69;5135881;27;20458;-70
2024/02/14 10:18:09;;;;;;;18.38;7.30;;;;;;;-5.63;45.66;101082.69;5113217;27;20032;-69
2024/02/14 10:21:04;;;;;;;15.77;7.30;;;;;;;-5.45;45.99;101088.88;5031410;28;20037;-68
2024/02/14 10:23:29;;;;;;;15.30;6.83;;;;;;;-5.60;46.42;101089.66;5020630;28;20045;-72
2024/02/14 10:25:56;;;;;;;16.55;8.13;;;;;;;-5.68;46.84;101084.41;5051197;28;20025;-66
2024/02/14 10:28:22;;;;;;;19.95;7.65;;;;;;;-5.28;46.46;101098.56;5051776;28;20037;-68
2024/02/14 10:30:51;;;;;;;14.88;6.63;;;;;;;-5.05;45.62;101078.66;5047250;28;20085;-77
2024/02/14 10:33:19;;;;;;;13.27;5.28;;;;;;;-4.85;44.50;101111.78;5050327;28;20033;-68
2024/02/14 10:35:45;;;;;;;11.73;6.45;;;;;;;-5.11;44.88;101088.19;5052594;28;20037;-69
2024/02/14 10:38:11;;;;;;;19.55;7.85;;;;;;;-5.37;45.70;101097.63;5050234;28;20043;-66
2024/02/14 10:40:38;;;;;;;17.80;8.13;;;;;;;-5.40;47.18;101081.94;5105885;27;20034;-67
2024/02/14 10:43:09;;;;;;;14.63;7.72;;;;;;;-5.11;46.24;101089.03;5116885;27;20562;-75
2024/02/14 10:45:39;;;;;;;16.02;7.72;;;;;;;-5.23;45.77;101031.56;5049525;28;20029;-66
2024/02/14 10:48:06;;;;;;;16.25;7.57;;;;;;;-4.84;45.70;101083.94;5049140;28;20049;-68
2024/02/14 10:50:35;;;;;;;18.38;6.53;;;;;;;-4.84;45.96;101095.25;5029341;28;20053;-64
2024/02/14 10:53:05;;;;;;;17.83;7.15;;;;;;;-4.87;45.89;101105.69;5031009;28;20048;-64
2024/02/14 10:55:33;;;;;;;11.27;5.43;;;;;;;-5.04;45.01;101035.09;5030624;28;20403;-63
2024/02/14 10:57:59;;;;;;;17.85;6.05;;;;;;;-4.83;45.01;101077.84;5032589;28;20098;-64
2024/02/14 11:00:25;;;;;;;14.40;7.43;;;;;;;-5.18;46.49;101074.22;5050323;28;20360;-62
2024/02/14 11:02:52;;;;;;;17.65;7.88;;;;;;;-5.10;47.31;101069.03;5049395;28;20064;-61
2024/02/14 11:05:23;;;;;;;14.40;6.53;;;;;;;-4.83;46.88;101083.06;5049594;28;20060;-64
2024/02/14 11:07:52;;;;;;;14.13;6.75;;;;;;;-4.62;44.96;101087.47;5049856;28;20024;-66
2024/02/14 11:10:20;;;;;;;14.98;7.32;;;;;;;-4.70;45.79;101095.31;5048670;28;20421;-65
2024/02/14 11:12:48;;;;;;;12.07;6.13;;;;;;;-5.10;46.46;101062.06;5049437;28;20078;-65
2024/02/14 11:15:23;;;;;;;14.20;5.82;;;;;;;-4.65;45.97;101104.03;5050159;28;20036;-64
2024/02/14 11:17:49;;;;;;;14.57;6.30;;;;;;;-5.15;45.25;101061.19;5049355;28;20472;-65
2024/02/14 11:20:17;;;;;;;17.13;7.00;;;;;;;-5.47;46.23;101039.28;5048128;28;20033;-65